Time;durP1;ratioP1;P1;durP2;ratioP2;P2;SDS_P1;SDS_P2;PMS_P1;PMS_P2;Temp;Humidity;BMP_temperature;BMP_pressure;BME280_temperature;BME280_humidity;BME280_pressure;Samples;Min_cycle;Max_cycle;Signal;HPM_P1;HPM_P2
2022/08/20 00:00:23;;;;;;;11.00;5.32;;;19.20;99.90;;;;;;5156011;27;20284;-59
2022/08/20 00:02:53;;;;;;;14.68;5.40;;;19.20;99.90;;;;;;5154739;27;20051;-59
2022/08/20 00:05:24;;;;;;;9.70;5.63;;;19.20;99.90;;;;;;5136302;27;20061;-59
2022/08/20 00:07:51;;;;;;;9.50;5.28;;;19.10;99.90;;;;;;5155863;27;20043;-58
2022/08/20 00:10:19;;;;;;;7.20;5.13;;;19.10;99.90;;;;;;5118817;27;20494;-58
2022/08/20 00:12:48;;;;;;;12.48;5.63;;;19.20;99.90;;;;;;5116127;27;20112;-59
2022/08/20 00:15:20;;;;;;;11.95;5.95;;;19.20;99.90;;;;;;5134857;27;20074;-59
2022/08/20 00:17:49;;;;;;;9.82;5.72;;;19.10;99.90;;;;;;5134671;27;20410;-58
2022/08/20 00:20:17;;;;;;;13.48;6.18;;;19.10;99.90;;;;;;5116551;27;20126;-58
2022/08/20 00:22:44;;;;;;;11.43;5.82;;;19.20;99.90;;;;;;5126763;27;20141;-60
2022/08/20 00:25:12;;;;;;;12.05;5.50;;;19.20;99.90;;;;;;5155018;27;20550;-58
2022/08/20 00:27:38;;;;;;;12.93;5.80;;;19.10;99.90;;;;;;5137475;27;20054;-59
2022/08/20 00:30:09;;;;;;;11.88;6.07;;;19.20;99.90;;;;;;5136758;27;20126;-58
2022/08/20 00:32:43;;;;;;;13.73;6.43;;;19.10;99.90;;;;;;5154940;27;20103;-59
2022/08/20 00:35:11;;;;;;;10.80;5.68;;;19.10;99.90;;;;;;5155483;27;20573;-59
2022/08/20 00:37:38;;;;;;;12.32;5.70;;;19.10;99.90;;;;;;5143116;27;20047;-59
2022/08/20 00:40:06;;;;;;;11.63;5.63;;;19.10;99.90;;;;;;5134017;27;20107;-58
2022/08/20 00:42:41;;;;;;;24.25;6.20;;;19.10;99.90;;;;;;5134612;27;20051;-59
2022/08/20 00:45:08;;;;;;;15.60;6.15;;;19.10;99.90;;;;;;5134426;27;20371;-59
2022/08/20 00:47:36;;;;;;;13.43;5.40;;;19.10;99.90;;;;;;5116612;27;20051;-59
2022/08/20 00:50:06;;;;;;;9.93;5.38;;;19.10;99.90;;;;;;5154798;27;20061;-59
2022/08/20 00:52:33;;;;;;;12.85;5.78;;;19.00;99.90;;;;;;5155627;27;20050;-58
2022/08/20 00:55:01;;;;;;;12.80;5.82;;;19.00;99.90;;;;;;5148586;27;20076;-58
2022/08/20 00:57:33;;;;;;;14.35;6.38;;;19.00;99.90;;;;;;5134021;27;20051;-59
2022/08/20 01:00:02;;;;;;;10.95;5.53;;;19.00;99.90;;;;;;5115502;27;20486;-59
2022/08/20 01:02:31;;;;;;;10.50;6.10;;;19.00;99.90;;;;;;5115779;27;20129;-59
2022/08/20 01:04:58;;;;;;;11.05;6.10;;;18.90;99.90;;;;;;5134044;27;20158;-60
2022/08/20 01:07:31;;;;;;;17.35;6.40;;;18.90;99.90;;;;;;5115665;27;20058;-59
2022/08/20 01:09:58;;;;;;;13.38;6.32;;;18.90;99.90;;;;;;5141051;27;20130;-58
2022/08/20 01:12:26;;;;;;;12.25;6.43;;;18.90;99.90;;;;;;5154415;27;20050;-59
2022/08/20 01:14:54;;;;;;;11.38;5.30;;;18.80;99.90;;;;;;5154249;27;20443;-59
2022/08/20 01:17:25;;;;;;;10.13;5.53;;;18.80;99.90;;;;;;5154927;27;20550;-60
2022/08/20 01:19:57;;;;;;;12.48;5.55;;;18.70;99.90;;;;;;5136140;27;20050;-59
2022/08/20 01:25:22;;;;;;;12.43;6.20;;;18.60;99.90;;;;;;5133594;27;20051;-59
2022/08/20 01:27:52;;;;;;;12.00;6.18;;;18.60;99.90;;;;;;5133797;27;20099;-59
2022/08/20 01:30:19;;;;;;;9.52;5.30;;;18.60;99.90;;;;;;5133243;27;20124;-59
2022/08/20 01:32:46;;;;;;;10.77;6.28;;;18.50;99.90;;;;;;5133628;28;20086;-59
2022/08/20 01:35:19;;;;;;;12.52;5.97;;;18.40;99.90;;;;;;5132802;27;20509;-58
2022/08/20 01:37:46;;;;;;;14.30;5.65;;;18.40;99.90;;;;;;5145527;27;20097;-59
2022/08/20 01:40:17;;;;;;;9.07;6.15;;;18.40;99.90;;;;;;5134987;27;20075;-59
2022/08/20 01:42:48;;;;;;;;;;;18.30;99.90;;;;;;5135136;27;20086;-59
2022/08/20 01:45:16;;;;;;;12.20;6.60;;;18.20;99.90;;;;;;5154520;27;19919;-59
2022/08/20 01:47:43;;;;;;;11.63;6.25;;;18.20;99.90;;;;;;5154231;27;20042;-59
2022/08/20 01:50:21;;;;;;;12.82;5.95;;;18.20;99.90;;;;;;5135265;27;20111;-59
2022/08/20 01:52:55;;;;;;;10.65;5.80;;;18.10;99.90;;;;;;5128766;28;20118;-58
2022/08/20 01:55:22;;;;;;;11.32;6.18;;;18.00;99.90;;;;;;5144679;27;20498;-59
2022/08/20 01:57:49;;;;;;;14.07;6.20;;;18.00;99.90;;;;;;5137872;27;20078;-58
2022/08/20 02:00:18;;;;;;;16.58;6.53;;;18.00;99.90;;;;;;5133319;28;20100;-59
2022/08/20 02:02:46;;;;;;;10.23;7.13;;;18.00;99.90;;;;;;5115311;28;20051;-58
2022/08/20 02:05:12;;;;;;;13.27;5.78;;;17.90;99.90;;;;;;5123302;27;20054;-59
2022/08/20 02:07:39;;;;;;;12.00;6.65;;;17.90;99.90;;;;;;5135872;27;20124;-59
2022/08/20 02:10:09;;;;;;;11.15;6.38;;;17.90;99.90;;;;;;5153773;27;20046;-58
2022/08/20 02:12:35;;;;;;;13.65;6.10;;;17.80;99.90;;;;;;5153583;27;20050;-58
2022/08/20 02:15:04;;;;;;;8.77;5.47;;;17.80;99.90;;;;;;5154112;27;20074;-58
2022/08/20 02:17:32;;;;;;;16.10;5.93;;;17.70;99.90;;;;;;5135434;27;20122;-59
2022/08/20 02:20:02;;;;;;;12.18;5.65;;;17.80;99.90;;;;;;5143793;27;20039;-58
2022/08/20 02:22:36;;;;;;;10.10;5.93;;;17.70;99.90;;;;;;5133461;28;20042;-59
2022/08/20 02:25:04;;;;;;;9.82;5.50;;;17.70;99.90;;;;;;5114881;28;20088;-58
2022/08/20 02:27:31;;;;;;;11.38;5.53;;;17.70;99.90;;;;;;5133598;28;20079;-59
2022/08/20 02:29:58;;;;;;;10.93;5.88;;;17.60;99.90;;;;;;5133012;28;20131;-58
2022/08/20 02:32:25;;;;;;;14.13;5.75;;;17.50;99.90;;;;;;5115823;27;20058;-58
2022/08/20 02:34:53;;;;;;;14.63;5.72;;;17.50;99.90;;;;;;5154039;27;20481;-59
2022/08/20 02:37:20;;;;;;;11.68;6.07;;;17.50;99.90;;;;;;5153801;27;20047;-59
2022/08/20 02:39:47;;;;;;;10.10;6.28;;;17.40;99.90;;;;;;5153252;27;20059;-59
2022/08/20 02:42:14;;;;;;;10.27;6.00;;;17.40;99.90;;;;;;5153589;27;20094;-59
2022/08/20 02:44:41;;;;;;;11.15;5.38;;;17.30;99.90;;;;;;5154069;27;20100;-59
2022/08/20 02:47:08;;;;;;;8.85;5.30;;;17.30;99.90;;;;;;5133129;27;20051;-59
2022/08/20 02:49:35;;;;;;;14.00;5.10;;;17.20;99.90;;;;;;5118911;27;20494;-59
2022/08/20 02:52:03;;;;;;;13.88;6.00;;;17.20;99.90;;;;;;5157537;27;20386;-58
2022/08/20 02:54:30;;;;;;;16.77;6.10;;;17.10;99.90;;;;;;5157261;27;20043;-58
2022/08/20 02:56:57;;;;;;;10.10;4.97;;;17.10;99.90;;;;;;5157388;27;20050;-58
2022/08/20 02:59:24;;;;;;;12.30;5.20;;;17.10;99.90;;;;;;5157484;27;20110;-58
2022/08/20 03:01:51;;;;;;;13.57;5.78;;;17.10;99.90;;;;;;5142511;27;20043;-59
2022/08/20 03:04:18;;;;;;;9.57;4.78;;;17.10;99.90;;;;;;5136256;27;20050;-58
2022/08/20 03:06:45;;;;;;;14.38;5.28;;;17.00;99.90;;;;;;5136026;27;20455;-58
2022/08/20 03:09:13;;;;;;;8.30;4.57;;;17.10;99.90;;;;;;5123930;27;20103;-59
2022/08/20 03:11:40;;;;;;;10.15;4.60;;;17.00;99.90;;;;;;5156795;27;20103;-59
2022/08/20 03:14:07;;;;;;;10.10;4.97;;;17.00;99.90;;;;;;5156661;27;20069;-59
2022/08/20 03:16:34;;;;;;;11.77;5.63;;;17.10;99.90;;;;;;5157142;27;20089;-59
2022/08/20 03:19:00;;;;;;;15.07;5.00;;;17.10;99.90;;;;;;5156704;27;20046;-59
2022/08/20 03:21:27;;;;;;;10.00;4.57;;;17.10;99.90;;;;;;5156432;27;20134;-58
2022/08/20 03:23:54;;;;;;;13.45;4.72;;;17.10;99.90;;;;;;5132553;27;20062;-58
2022/08/20 03:26:22;;;;;;;8.20;4.00;;;17.10;99.90;;;;;;5135907;27;20082;-58
2022/08/20 03:28:49;;;;;;;9.98;4.68;;;17.10;99.90;;;;;;5117169;27;20130;-58
2022/08/20 03:31:16;;;;;;;7.50;3.88;;;17.10;99.90;;;;;;5117320;27;20047;-59
2022/08/20 03:33:43;;;;;;;12.68;3.88;;;17.10;99.90;;;;;;5117884;27;20059;-59
2022/08/20 03:36:10;;;;;;;8.75;3.90;;;17.00;99.90;;;;;;5116951;27;20096;-59
2022/08/20 03:38:37;;;;;;;17.17;4.40;;;17.00;99.90;;;;;;5134369;27;20051;-58
2022/08/20 03:41:04;;;;;;;10.05;4.15;;;16.90;99.90;;;;;;5138182;27;20039;-59
2022/08/20 03:43:34;;;;;;;12.55;3.70;;;16.90;99.90;;;;;;5156215;27;20047;-59
2022/08/20 03:46:01;;;;;;;9.70;4.15;;;16.80;99.90;;;;;;5155866;27;20050;-58
2022/08/20 03:48:29;;;;;;;14.07;4.75;;;16.90;99.90;;;;;;5137710;27;20558;-59
2022/08/20 03:50:59;;;;;;;12.95;4.38;;;16.90;99.90;;;;;;5155735;27;20100;-59
2022/08/20 03:53:30;;;;;;;;;;;16.80;99.90;;;;;;5138394;27;20055;-60
2022/08/20 03:55:59;;;;;;;;;;;16.90;99.90;;;;;;5135624;27;19994;-59
2022/08/20 03:58:27;;;;;;;5.70;4.07;;;16.80;99.90;;;;;;5117101;27;19991;-58
2022/08/20 04:00:56;;;;;;;8.80;4.38;;;16.70;99.90;;;;;;5134916;27;20051;-57
2022/08/20 04:03:23;;;;;;;8.90;4.60;;;16.80;99.90;;;;;;5134409;27;20083;-58
2022/08/20 04:05:51;;;;;;;9.80;4.47;;;16.70;99.90;;;;;;5144326;27;20051;-58
2022/08/20 04:08:20;;;;;;;8.38;4.00;;;16.80;99.90;;;;;;5137247;27;20093;-58
2022/08/20 04:10:48;;;;;;;11.65;4.18;;;16.70;99.90;;;;;;5136517;27;20055;-58
2022/08/20 04:13:17;;;;;;;11.23;4.60;;;16.70;99.90;;;;;;5155972;27;20169;-57
2022/08/20 04:15:45;;;;;;;9.15;4.95;;;16.70;99.90;;;;;;5147750;27;20459;-58
2022/08/20 04:18:13;;;;;;;9.50;4.10;;;16.70;99.90;;;;;;5116306;27;20047;-58
2022/08/20 04:20:42;;;;;;;14.07;4.70;;;16.70;99.90;;;;;;5116493;27;20082;-58
2022/08/20 04:23:09;;;;;;;8.70;4.03;;;16.60;99.90;;;;;;5135010;27;20101;-58
2022/08/20 04:25:39;;;;;;;11.23;5.00;;;16.60;99.90;;;;;;5134475;27;20391;-58
2022/08/20 04:28:10;;;;;;;12.63;4.75;;;16.60;99.90;;;;;;5116271;27;20051;-59
2022/08/20 04:30:37;;;;;;;;;;;16.50;99.90;;;;;;5125891;27;20043;-60
2022/08/20 04:33:04;;;;;;;12.57;5.00;;;16.50;99.90;;;;;;5132888;27;19965;-59
2022/08/20 04:35:32;;;;;;;9.00;4.63;;;16.50;99.90;;;;;;5134588;27;20047;-59
2022/08/20 04:38:02;;;;;;;10.63;4.20;;;16.60;99.90;;;;;;5134361;27;20051;-59
2022/08/20 04:43:14;;;;;;;9.30;3.92;;;16.50;99.90;;;;;;5134253;27;20399;-59
2022/08/20 04:45:41;;;;;;;12.75;4.30;;;16.50;99.90;;;;;;5115997;27;20086;-58
2022/08/20 04:48:08;;;;;;;10.90;4.20;;;16.60;99.90;;;;;;5134509;27;20134;-58
2022/08/20 04:50:38;;;;;;;12.75;5.13;;;16.50;99.90;;;;;;5115849;27;20063;-59
2022/08/20 04:53:07;;;;;;;9.03;3.63;;;16.60;99.90;;;;;;5134010;27;20047;-58
2022/08/20 04:55:37;;;;;;;9.70;4.45;;;16.50;99.90;;;;;;5115917;27;20130;-58
2022/08/20 04:58:06;;;;;;;11.43;3.97;;;16.50;99.90;;;;;;5134525;27;20047;-59
2022/08/20 05:00:33;;;;;;;10.50;4.25;;;16.50;99.90;;;;;;5133812;27;20103;-59
2022/08/20 05:03:00;;;;;;;9.43;4.32;;;16.50;99.90;;;;;;5153313;27;20133;-59
2022/08/20 05:05:27;;;;;;;11.40;4.57;;;16.50;99.90;;;;;;5155024;27;20103;-59
2022/08/20 05:07:56;;;;;;;16.38;4.63;;;16.50;99.90;;;;;;5135980;27;20050;-59
2022/08/20 05:10:24;;;;;;;11.65;4.78;;;16.50;99.90;;;;;;5153880;27;20050;-59
2022/08/20 05:12:51;;;;;;;10.70;4.50;;;16.40;99.90;;;;;;5154847;27;20046;-58
2022/08/20 05:15:18;;;;;;;12.10;4.38;;;16.40;99.90;;;;;;5154213;27;20528;-59
2022/08/20 05:17:44;;;;;;;10.02;4.53;;;16.50;99.90;;;;;;5134416;27;20047;-58
2022/08/20 05:20:16;;;;;;;9.20;3.92;;;16.40;99.90;;;;;;5133681;27;20050;-58
2022/08/20 05:22:43;;;;;;;10.35;4.82;;;16.40;99.90;;;;;;5134169;27;20052;-58
2022/08/20 05:25:12;;;;;;;8.65;3.42;;;16.40;99.90;;;;;;5133776;27;20520;-59
2022/08/20 05:27:40;;;;;;;8.07;4.05;;;16.40;99.90;;;;;;5133508;27;20047;-58
2022/08/20 05:30:11;;;;;;;10.30;4.03;;;16.40;99.90;;;;;;5145260;27;20134;-58
2022/08/20 05:32:38;;;;;;;;;;;16.40;99.90;;;;;;5154827;27;20054;-59
2022/08/20 05:35:08;;;;;;;13.40;4.13;;;16.40;99.90;;;;;;5154287;27;19919;-59
2022/08/20 05:37:35;;;;;;;10.27;3.53;;;16.40;99.90;;;;;;5154395;27;20099;-58
2022/08/20 05:40:02;;;;;;;7.40;3.10;;;16.40;99.90;;;;;;5135840;27;20091;-58
2022/08/20 05:42:30;;;;;;;8.73;2.80;;;16.40;99.90;;;;;;5153876;27;20051;-57
2022/08/20 05:44:57;;;;;;;7.93;3.40;;;16.40;99.90;;;;;;5147192;27;20482;-59
2022/08/20 05:47:27;;;;;;;13.52;3.35;;;16.60;99.90;;;;;;5151482;27;20066;-58
2022/08/20 05:49:54;;;;;;;8.02;3.38;;;16.70;99.90;;;;;;5130891;27;20042;-58
2022/08/20 05:52:20;;;;;;;8.80;3.28;;;16.90;99.90;;;;;;5144224;27;20122;-58
2022/08/20 05:54:47;;;;;;;9.82;2.92;;;17.10;99.90;;;;;;5130228;27;20544;-59
2022/08/20 05:57:18;;;;;;;13.38;3.50;;;17.30;99.90;;;;;;5137509;27;20050;-59
2022/08/20 05:59:46;;;;;;;6.53;2.65;;;17.50;99.90;;;;;;5145989;27;20055;-57
2022/08/20 06:04:54;;;;;;;7.15;2.63;;;18.00;99.90;;;;;;5142202;27;20039;-59
2022/08/20 06:07:21;;;;;;;7.47;2.97;;;18.30;99.90;;;;;;5146671;27;20103;-59
2022/08/20 06:09:49;;;;;;;10.82;3.47;;;18.50;99.90;;;;;;5139264;27;20050;-60
2022/08/20 06:12:16;;;;;;;9.93;2.45;;;18.60;99.90;;;;;;5138975;27;20058;-60
2022/08/20 06:14:46;;;;;;;8.43;2.33;;;19.00;99.90;;;;;;5146508;27;20074;-59
2022/08/20 06:17:16;;;;;;;6.90;2.78;;;19.10;99.90;;;;;;5143190;27;20499;-58
2022/08/20 06:19:45;;;;;;;6.32;2.28;;;19.30;99.90;;;;;;5151220;27;20046;-59
2022/08/20 06:22:12;;;;;;;7.43;1.90;;;19.50;99.90;;;;;;5143807;27;20099;-59
2022/08/20 06:24:39;;;;;;;5.78;2.10;;;19.90;99.90;;;;;;5128532;27;20130;-60
2022/08/20 06:27:06;;;;;;;7.57;2.35;;;20.70;99.90;;;;;;5127587;27;20438;-60
2022/08/20 06:29:33;;;;;;;8.23;2.22;;;20.50;99.90;;;;;;5147493;27;20082;-59
2022/08/20 06:32:00;;;;;;;6.03;2.22;;;21.10;99.90;;;;;;5139456;27;20047;-59
2022/08/20 06:34:29;;;;;;;7.38;1.92;;;21.70;99.90;;;;;;5147090;27;20053;-59
2022/08/20 06:36:56;;;;;;;10.23;2.20;;;22.20;99.90;;;;;;5146582;27;20151;-59
2022/08/20 06:39:25;;;;;;;6.78;2.28;;;22.70;99.90;;;;;;5129285;27;20050;-59
2022/08/20 06:41:52;;;;;;;10.00;2.28;;;23.00;99.90;;;;;;5149916;27;20039;-60
2022/08/20 06:44:19;;;;;;;7.25;2.35;;;23.30;99.90;;;;;;5136218;27;20383;-59
2022/08/20 06:46:46;;;;;;;4.45;1.40;;;23.80;99.90;;;;;;5148341;27;20046;-60
2022/08/20 06:49:13;;;;;;;5.80;2.05;;;24.20;99.90;;;;;;5147548;27;20075;-59
2022/08/20 06:51:41;;;;;;;11.15;1.85;;;24.70;99.90;;;;;;5149694;27;20039;-60
2022/08/20 06:54:08;;;;;;;3.83;1.63;;;25.00;98.40;;;;;;5151301;27;20039;-59
2022/08/20 06:56:34;;;;;;;5.85;1.65;;;25.20;97.40;;;;;;5151301;27;20103;-59
2022/08/20 06:59:01;;;;;;;3.38;1.42;;;25.10;97.40;;;;;;5142791;27;20161;-62
2022/08/20 07:01:28;;;;;;;4.45;1.40;;;25.10;96.90;;;;;;5140468;27;20039;-59
2022/08/20 07:03:58;;;;;;;10.88;1.80;;;25.30;96.20;;;;;;5123379;27;20096;-59
2022/08/20 07:06:25;;;;;;;5.75;1.40;;;25.90;95.80;;;;;;5143912;27;20046;-59
2022/08/20 07:08:54;;;;;;;5.65;1.50;;;26.40;95.10;;;;;;5128536;27;20134;-60
2022/08/20 07:11:21;;;;;;;3.88;1.20;;;26.80;93.70;;;;;;5148186;27;20050;-60
2022/08/20 07:13:48;;;;;;;4.53;1.45;;;27.40;93.40;;;;;;5125494;27;20047;-60
2022/08/20 07:16:15;;;;;;;4.40;1.20;;;27.90;92.60;;;;;;5144510;27;20050;-59
2022/08/20 07:18:42;;;;;;;4.60;1.40;;;28.20;91.80;;;;;;5125915;27;20055;-60
2022/08/20 07:21:10;;;;;;;5.20;1.30;;;28.40;91.10;;;;;;5151561;27;20413;-59
2022/08/20 07:23:37;;;;;;;3.67;1.02;;;28.70;90.40;;;;;;5145506;27;20130;-59
2022/08/20 07:26:08;;;;;;;3.97;1.33;;;28.90;90.00;;;;;;5144970;27;20095;-60
2022/08/20 07:28:34;;;;;;;5.68;1.42;;;29.00;86.70;;;;;;5126378;27;20084;-59
2022/08/20 07:33:46;;;;;;;4.07;0.90;;;29.20;87.80;;;;;;5139358;27;20043;-59
2022/08/20 07:36:13;;;;;;;4.50;1.40;;;29.20;85.50;;;;;;5144129;27;20050;-60
2022/08/20 07:38:40;;;;;;;5.13;1.40;;;29.30;84.90;;;;;;5140704;27;20391;-60
2022/08/20 07:41:13;;;;;;;4.18;1.15;;;28.90;84.20;;;;;;5145215;27;20050;-60
2022/08/20 07:43:40;;;;;;;4.07;1.15;;;29.10;84.10;;;;;;5126902;27;20046;-61
2022/08/20 07:46:08;;;;;;;5.53;1.30;;;29.40;83.90;;;;;;5141296;27;20047;-60
2022/08/20 07:48:39;;;;;;;6.03;1.40;;;29.60;83.10;;;;;;5145247;27;20050;-59
2022/08/20 07:51:07;;;;;;;7.03;1.40;;;29.50;81.40;;;;;;5152812;27;20045;-60
2022/08/20 07:53:36;;;;;;;4.35;1.30;;;29.50;82.00;;;;;;5140461;27;20051;-60
2022/08/20 07:56:06;;;;;;;5.55;1.20;;;29.40;81.10;;;;;;5143745;27;20039;-60
2022/08/20 07:58:35;;;;;;;6.18;1.40;;;29.40;80.40;;;;;;5143615;27;20043;-60
2022/08/20 08:01:02;;;;;;;4.22;1.38;;;29.70;79.50;;;;;;5142619;27;20055;-60
2022/08/20 08:03:30;;;;;;;6.30;1.30;;;29.80;79.40;;;;;;5148631;27;20078;-60
2022/08/20 08:05:57;;;;;;;3.05;1.08;;;30.10;78.50;;;;;;5154231;27;20050;-60
2022/08/20 08:08:27;;;;;;;2.88;1.00;;;29.90;77.40;;;;;;5154826;27;20435;-59
2022/08/20 08:10:57;;;;;;;3.33;1.08;;;29.90;77.70;;;;;;5136894;27;20054;-59
2022/08/20 08:13:26;;;;;;;7.13;2.03;;;30.20;75.80;;;;;;5156104;27;20043;-60
2022/08/20 08:15:58;;;;;;;5.20;1.30;;;30.30;76.50;;;;;;5156063;27;20194;-60
2022/08/20 08:18:35;;;;;;;4.72;1.25;;;30.70;73.70;;;;;;5155444;27;20095;-60
2022/08/20 08:21:02;;;;;;;4.50;1.13;;;30.90;74.00;;;;;;5155451;27;20051;-59
2022/08/20 08:23:29;;;;;;;5.60;1.20;;;30.70;74.40;;;;;;5155520;27;20077;-60
2022/08/20 08:25:57;;;;;;;6.45;1.50;;;31.20;74.50;;;;;;5155358;27;20106;-60
2022/08/20 08:28:27;;;;;;;3.00;1.15;;;31.60;73.50;;;;;;5155759;27;20489;-60
2022/08/20 08:30:55;;;;;;;5.55;1.50;;;32.10;72.80;;;;;;5154786;27;20059;-60
2022/08/20 08:33:27;;;;;;;7.27;1.53;;;32.40;72.10;;;;;;5155494;27;20050;-60
2022/08/20 08:35:54;;;;;;;5.07;1.30;;;32.30;71.70;;;;;;5155492;27;20081;-61
2022/08/20 08:38:22;;;;;;;3.45;1.02;;;32.50;71.10;;;;;;5155271;27;20050;-60
2022/08/20 08:40:50;;;;;;;4.22;1.23;;;32.60;70.70;;;;;;5136518;27;20134;-60
2022/08/20 08:43:19;;;;;;;5.68;1.30;;;32.10;70.20;;;;;;5155707;27;20046;-60
2022/08/20 08:45:50;;;;;;;4.40;1.35;;;30.80;70.40;;;;;;5155240;27;20082;-60
2022/08/20 08:48:20;;;;;;;5.07;1.95;;;29.80;71.70;;;;;;5136955;27;20051;-60
2022/08/20 08:50:49;;;;;;;5.38;1.23;;;29.70;71.90;;;;;;5155333;27;20047;-60
2022/08/20 08:53:21;;;;;;;5.28;1.10;;;30.60;71.70;;;;;;5136151;27;20414;-60
2022/08/20 08:55:48;;;;;;;4.05;1.50;;;31.00;70.40;;;;;;5155035;27;20067;-61
2022/08/20 08:58:15;;;;;;;6.22;1.20;;;31.40;69.10;;;;;;5136965;27;20054;-60
2022/08/20 09:00:42;;;;;;;5.28;1.30;;;31.70;68.30;;;;;;5135784;27;20077;-61
2022/08/20 09:03:12;;;;;;;6.43;1.50;;;31.70;67.50;;;;;;5154410;27;20081;-61
2022/08/20 09:05:45;;;;;;;6.40;1.52;;;31.50;68.90;;;;;;5135695;27;20540;-59
2022/08/20 09:08:15;;;;;;;7.22;1.48;;;31.80;67.10;;;;;;5115207;27;20092;-61
2022/08/20 09:10:43;;;;;;;7.35;1.50;;;31.90;68.20;;;;;;5115638;27;20051;-60
2022/08/20 09:13:10;;;;;;;4.90;1.40;;;32.40;68.20;;;;;;5133469;27;20091;-60
2022/08/20 09:15:38;;;;;;;5.55;1.40;;;32.60;67.40;;;;;;5132784;27;20126;-60
2022/08/20 09:18:05;;;;;;;4.15;1.10;;;32.30;67.10;;;;;;5134360;27;20047;-61
2022/08/20 09:20:32;;;;;;;4.50;1.23;;;31.80;67.20;;;;;;5137314;27;20046;-60
2022/08/20 09:23:00;;;;;;;4.38;1.40;;;32.10;67.70;;;;;;5114987;27;20047;-60
2022/08/20 09:25:27;;;;;;;5.88;1.50;;;32.20;66.10;;;;;;5115450;27;20051;-60
2022/08/20 09:27:54;;;;;;;3.30;0.93;;;32.60;65.80;;;;;;5133147;27;20047;-61
2022/08/20 09:30:21;;;;;;;3.92;1.38;;;33.30;65.50;;;;;;5133353;27;20047;-60
2022/08/20 09:32:48;;;;;;;5.40;1.20;;;33.40;65.30;;;;;;5114678;27;20071;-60
2022/08/20 09:35:14;;;;;;;5.85;1.90;;;32.50;65.10;;;;;;5120770;27;20078;-61
2022/08/20 09:37:41;;;;;;;3.22;1.20;;;31.50;65.40;;;;;;5154417;27;20046;-60
2022/08/20 09:40:11;;;;;;;6.28;1.33;;;31.60;65.80;;;;;;5154092;27;20058;-60
2022/08/20 09:42:39;;;;;;;5.15;1.20;;;31.80;65.70;;;;;;5153918;27;20046;-60
2022/08/20 09:45:07;;;;;;;4.03;1.30;;;32.20;65.30;;;;;;5135595;27;20063;-60
2022/08/20 09:47:34;;;;;;;7.65;1.58;;;32.70;65.40;;;;;;5153935;27;20139;-59
2022/08/20 09:50:00;;;;;;;5.70;1.20;;;32.30;64.60;;;;;;5134512;27;20083;-60
2022/08/20 09:52:30;;;;;;;6.75;1.55;;;31.60;65.00;;;;;;5153671;27;20435;-60
2022/08/20 09:55:00;;;;;;;3.97;1.10;;;30.80;66.00;;;;;;5114094;28;20498;-60
2022/08/20 09:57:30;;;;;;;5.53;1.30;;;31.00;66.10;;;;;;5138370;27;20210;-59
2022/08/20 10:00:01;;;;;;;4.60;1.25;;;31.40;65.70;;;;;;5158165;27;20450;-62
2022/08/20 10:02:28;;;;;;;4.13;1.42;;;31.80;65.10;;;;;;5139455;27;20053;-60
2022/08/20 10:04:55;;;;;;;3.03;1.20;;;31.50;64.90;;;;;;5139405;27;20051;-60
2022/08/20 10:07:22;;;;;;;5.03;1.40;;;31.20;65.00;;;;;;5158136;27;20119;-60
2022/08/20 10:09:49;;;;;;;5.65;1.80;;;31.30;65.90;;;;;;5131026;27;20555;-60
2022/08/20 10:12:15;;;;;;;7.90;1.20;;;31.80;65.00;;;;;;5148067;27;20059;-59
2022/08/20 10:14:44;;;;;;;3.47;1.17;;;31.70;64.90;;;;;;5140560;27;20042;-60
2022/08/20 10:17:11;;;;;;;5.43;1.75;;;30.70;63.80;;;;;;5157105;27;20053;-60
2022/08/20 10:19:38;;;;;;;5.88;1.38;;;30.40;65.10;;;;;;5129915;27;20051;-60
2022/08/20 10:22:05;;;;;;;4.65;1.40;;;30.20;65.10;;;;;;5151455;27;20047;-60
2022/08/20 10:24:32;;;;;;;4.57;1.30;;;30.80;65.70;;;;;;5139043;27;20128;-60
2022/08/20 10:27:00;;;;;;;6.65;2.00;;;30.70;64.10;;;;;;5157864;27;20091;-59
2022/08/20 10:29:29;;;;;;;3.88;1.00;;;31.00;63.20;;;;;;5138658;27;20078;-60
2022/08/20 10:32:08;;;;;;;3.78;1.38;;;31.30;62.90;;;;;;5128166;27;20047;-60
2022/08/20 10:34:34;;;;;;;3.00;0.98;;;31.30;62.80;;;;;;5136531;27;20406;-60
2022/08/20 10:37:01;;;;;;;3.53;1.20;;;30.80;63.50;;;;;;5136619;27;20096;-59
2022/08/20 10:39:28;;;;;;;2.92;1.00;;;30.30;64.10;;;;;;5137009;27;20092;-60
2022/08/20 10:41:55;;;;;;;5.50;1.48;;;30.10;64.70;;;;;;5136866;27;20081;-60
2022/08/20 10:44:22;;;;;;;6.95;1.35;;;29.50;65.20;;;;;;5135794;27;20092;-59
2022/08/20 10:46:48;;;;;;;4.75;1.70;;;29.60;66.30;;;;;;5136565;27;20050;-61
2022/08/20 10:49:17;;;;;;;8.30;1.63;;;29.50;65.60;;;;;;5137544;27;20107;-60
2022/08/20 10:51:44;;;;;;;3.10;1.20;;;29.60;65.60;;;;;;5127355;27;20061;-60
2022/08/20 10:54:10;;;;;;;4.60;1.45;;;29.50;66.50;;;;;;5157271;27;20070;-59
2022/08/20 10:56:37;;;;;;;4.40;1.20;;;29.20;66.90;;;;;;5142872;27;20090;-60
2022/08/20 10:59:04;;;;;;;4.68;1.40;;;29.10;67.10;;;;;;5143934;27;20095;-59
2022/08/20 11:01:31;;;;;;;5.18;1.17;;;29.00;67.80;;;;;;5138549;27;20052;-59
2022/08/20 11:03:58;;;;;;;5.40;1.50;;;28.80;68.10;;;;;;5139080;27;20054;-61
2022/08/20 11:06:26;;;;;;;6.65;1.42;;;28.60;68.30;;;;;;5138421;27;20490;-60
2022/08/20 11:08:53;;;;;;;7.32;1.58;;;28.90;69.00;;;;;;5156015;27;20047;-60
2022/08/20 11:11:19;;;;;;;5.40;1.50;;;29.50;68.60;;;;;;5157049;27;20090;-59
2022/08/20 11:13:46;;;;;;;5.10;1.35;;;30.10;68.30;;;;;;5156309;27;20095;-59
2022/08/20 11:16:14;;;;;;;5.30;1.65;;;30.20;68.00;;;;;;5156794;27;20051;-60
2022/08/20 11:18:41;;;;;;;8.35;1.80;;;29.70;67.50;;;;;;5155872;27;20095;-59
2022/08/20 11:21:08;;;;;;;4.28;1.60;;;29.50;67.60;;;;;;5116762;27;20047;-59
2022/08/20 11:23:36;;;;;;;5.95;1.55;;;29.30;68.20;;;;;;5117749;27;20074;-59
2022/08/20 11:26:03;;;;;;;5.97;1.85;;;29.10;67.70;;;;;;5148602;27;20050;-59
2022/08/20 11:28:32;;;;;;;4.85;1.35;;;29.50;68.00;;;;;;5156711;27;20082;-59
2022/08/20 11:30:59;;;;;;;3.83;1.50;;;29.80;67.20;;;;;;5138480;27;20439;-60
2022/08/20 11:33:26;;;;;;;3.85;1.52;;;30.70;67.00;;;;;;5156449;27;20157;-60
2022/08/20 11:35:53;;;;;;;5.72;1.48;;;31.50;65.80;;;;;;5156400;27;20046;-60
2022/08/20 11:38:20;;;;;;;8.32;1.55;;;32.40;64.40;;;;;;5143042;27;20550;-60
2022/08/20 11:40:48;;;;;;;5.13;1.45;;;33.00;62.40;;;;;;5138722;27;20078;-61
2022/08/20 11:43:15;;;;;;;5.07;1.27;;;33.30;60.50;;;;;;5137362;27;20464;-57
2022/08/20 11:45:42;;;;;;;5.93;1.40;;;33.70;60.50;;;;;;5123615;27;20130;-61
2022/08/20 11:48:09;;;;;;;4.28;1.40;;;33.60;60.30;;;;;;5154042;27;20046;-61
2022/08/20 11:50:36;;;;;;;6.45;1.80;;;33.70;60.30;;;;;;5146593;27;20047;-60
2022/08/20 11:53:03;;;;;;;7.93;1.90;;;33.60;60.00;;;;;;5116552;27;20119;-60
2022/08/20 11:55:30;;;;;;;4.85;1.30;;;34.10;60.00;;;;;;5116214;27;20047;-59
2022/08/20 11:57:58;;;;;;;6.03;1.30;;;34.50;60.20;;;;;;5117892;27;20417;-59
2022/08/20 12:00:26;;;;;;;3.15;1.27;;;33.50;60.20;;;;;;5135620;27;20043;-64
2022/08/20 12:02:53;;;;;;;5.82;1.55;;;32.60;61.10;;;;;;5130795;27;20054;-60
2022/08/20 12:05:20;;;;;;;8.40;2.15;;;32.20;62.20;;;;;;5155632;27;20050;-60
2022/08/20 12:07:47;;;;;;;7.47;1.58;;;32.20;62.60;;;;;;5147508;27;20043;-60
2022/08/20 12:10:15;;;;;;;8.70;1.63;;;32.70;62.20;;;;;;5116457;27;20115;-59
2022/08/20 12:12:42;;;;;;;4.18;1.20;;;33.30;61.60;;;;;;5135645;27;20074;-59
2022/08/20 12:15:11;;;;;;;4.88;1.48;;;33.20;60.30;;;;;;5117199;27;20078;-60
2022/08/20 12:17:38;;;;;;;4.32;1.55;;;33.60;58.90;;;;;;5133801;27;20096;-60
2022/08/20 12:20:08;;;;;;;6.68;1.48;;;34.00;59.30;;;;;;5116319;27;20059;-60
2022/08/20 12:22:35;;;;;;;5.68;1.42;;;33.80;59.10;;;;;;5135343;27;20050;-60
2022/08/20 12:25:04;;;;;;;4.95;1.50;;;34.20;58.60;;;;;;5140663;27;20410;-60
2022/08/20 12:27:32;;;;;;;4.78;1.30;;;33.70;58.80;;;;;;5136919;27;20130;-61
2022/08/20 12:30:02;;;;;;;8.32;1.58;;;33.20;59.30;;;;;;5155069;27;20050;-61
2022/08/20 12:32:31;;;;;;;4.85;1.48;;;33.40;59.20;;;;;;5153896;27;20447;-61
2022/08/20 12:34:58;;;;;;;4.72;1.27;;;33.50;58.70;;;;;;5150100;27;20055;-66
2022/08/20 12:37:27;;;;;;;5.43;1.35;;;34.10;59.10;;;;;;5149994;27;20042;-66
2022/08/20 12:39:57;;;;;;;9.55;2.22;;;34.30;58.60;;;;;;5153974;27;20050;-66
2022/08/20 12:42:24;;;;;;;4.50;1.40;;;34.20;58.80;;;;;;5133157;27;20058;-66
2022/08/20 12:44:51;;;;;;;3.65;1.45;;;33.50;58.80;;;;;;5149516;27;20073;-68
2022/08/20 12:47:20;;;;;;;5.22;1.60;;;33.40;59.60;;;;;;5124834;27;20085;-66
2022/08/20 12:49:51;;;;;;;3.72;1.52;;;33.40;59.30;;;;;;5145457;27;20494;-67
2022/08/20 12:52:20;;;;;;;3.25;1.13;;;33.80;58.80;;;;;;5125625;27;20047;-67
2022/08/20 12:54:47;;;;;;;3.58;1.27;;;33.70;59.40;;;;;;5146851;27;20486;-67
2022/08/20 12:57:15;;;;;;;4.55;1.80;;;34.10;58.80;;;;;;5131318;27;20141;-67
2022/08/20 12:59:42;;;;;;;4.95;1.70;;;34.50;58.80;;;;;;5146786;27;20510;-67